X  Tanca Dades meteorològiques de l'aviació METAR     LEVC Valencia Airport
Temperatura
9°C Temperatura
9°C Rosada
100% Humitat



Vent
2 KM/H
1 MPH
0 M/S
1 NUS



310°
NO
Condicions actuals

Boira Boira
Pressió 1029.92 (hPa) - 30.41 (inHg)
Visibilitat 2.5 (milla) - 4 (km)
Aeroport
Codi aeroport LEVC

Ubicació: Valencia Airport
Distància: 60 (km)

Metar:
LEVC 260600Z 31001KT 4000 BR FEW010 SCT030 09/09 Q1030 NOSIG

Temps: 26-02-2021 07:00 CET